sensor_id;sensor_type;location;lat;lon;timestamp;pressure;altitude;pressure_sealevel;temperature;humidity
29903;BME280;30288;50.514;9.678;2024-03-06T00:00:29;98753.53;;;6.49;100.00
29903;BME280;30288;50.514;9.678;2024-03-06T00:02:35;98760.22;;;6.47;100.00
29903;BME280;30288;50.514;9.678;2024-03-06T00:04:41;98753.59;;;6.46;100.00
29903;BME280;30288;50.514;9.678;2024-03-06T00:06:46;98761.94;;;6.45;100.00
29903;BME280;30288;50.514;9.678;2024-03-06T00:08:54;98755.28;;;6.44;100.00
29903;BME280;30288;50.514;9.678;2024-03-06T00:11:03;98761.94;;;6.45;100.00
29903;BME280;30288;50.514;9.678;2024-03-06T00:13:09;98763.63;;;6.43;100.00
29903;BME280;30288;50.514;9.678;2024-03-06T00:15:12;98761.16;;;6.41;100.00
29903;BME280;30288;50.514;9.678;2024-03-06T00:17:17;98765.31;;;6.41;100.00
29903;BME280;30288;50.514;9.678;2024-03-06T00:19:20;98764.50;;;6.40;100.00
29903;BME280;30288;50.514;9.678;2024-03-06T00:21:25;98760.34;;;6.38;100.00
29903;BME280;30288;50.514;9.678;2024-03-06T00:23:32;98758.72;;;6.34;100.00
29903;BME280;30288;50.514;9.678;2024-03-06T00:25:38;98767.97;;;6.27;100.00
29903;BME280;30288;50.514;9.678;2024-03-06T00:27:47;98776.31;;;6.25;100.00
29903;BME280;30288;50.514;9.678;2024-03-06T00:29:52;98782.13;;;6.27;100.00
29903;BME280;30288;50.514;9.678;2024-03-06T00:31:58;98778.78;;;6.28;100.00
29903;BME280;30288;50.514;9.678;2024-03-06T00:34:01;98787.94;;;6.32;100.00
29903;BME280;30288;50.514;9.678;2024-03-06T00:36:08;98793.72;;;6.32;100.00
29903;BME280;30288;50.514;9.678;2024-03-06T00:38:15;98792.06;;;6.36;100.00
29903;BME280;30288;50.514;9.678;2024-03-06T00:40:20;98799.56;;;6.36;100.00
29903;BME280;30288;50.514;9.678;2024-03-06T00:42:26;98798.69;;;6.37;100.00
29903;BME280;30288;50.514;9.678;2024-03-06T00:44:32;98797.91;;;6.33;100.00
29903;BME280;30288;50.514;9.678;2024-03-06T00:46:39;98794.59;;;6.31;100.00
29903;BME280;30288;50.514;9.678;2024-03-06T00:48:44;98807.94;;;6.29;100.00
29903;BME280;30288;50.514;9.678;2024-03-06T00:50:50;98802.16;;;6.24;100.00
29903;BME280;30288;50.514;9.678;2024-03-06T00:52:55;98803.81;;;6.25;100.00
29903;BME280;30288;50.514;9.678;2024-03-06T00:55:00;98809.66;;;6.27;100.00
29903;BME280;30288;50.514;9.678;2024-03-06T00:57:03;98806.31;;;6.26;100.00
29903;BME280;30288;50.514;9.678;2024-03-06T00:59:09;98800.47;;;6.26;100.00
29903;BME280;30288;50.514;9.678;2024-03-06T01:01:18;98807.16;;;6.27;100.00
29903;BME280;30288;50.514;9.678;2024-03-06T01:03:24;98809.66;;;6.27;100.00
29903;BME280;30288;50.514;9.678;2024-03-06T01:05:29;98812.97;;;6.27;100.00
29903;BME280;30288;50.514;9.678;2024-03-06T01:07:34;98812.19;;;6.22;100.00
29903;BME280;30288;50.514;9.678;2024-03-06T01:09:41;98817.19;;;6.19;100.00
29903;BME280;30288;50.514;9.678;2024-03-06T01:11:47;98815.53;;;6.20;100.00
29903;BME280;30288;50.514;9.678;2024-03-06T01:13:53;98813.81;;;6.25;100.00
29903;BME280;30288;50.514;9.678;2024-03-06T01:15:59;98818.00;;;6.26;100.00
29903;BME280;30288;50.514;9.678;2024-03-06T01:18:05;98815.50;;;6.26;100.00
29903;BME280;30288;50.514;9.678;2024-03-06T01:20:12;98812.97;;;6.27;100.00
29903;BME280;30288;50.514;9.678;2024-03-06T01:22:17;98815.50;;;6.23;100.00
29903;BME280;30288;50.514;9.678;2024-03-06T01:24:23;98810.50;;;6.23;100.00
29903;BME280;30288;50.514;9.678;2024-03-06T01:26:28;98812.25;;;6.18;100.00
29903;BME280;30288;50.514;9.678;2024-03-06T01:28:36;98809.75;;;6.18;100.00
29903;BME280;30288;50.514;9.678;2024-03-06T01:30:42;98808.88;;;6.19;100.00
29903;BME280;30288;50.514;9.678;2024-03-06T01:32:47;98808.06;;;6.17;100.00
29903;BME280;30288;50.514;9.678;2024-03-06T01:34:55;98803.88;;;6.19;100.00
29903;BME280;30288;50.514;9.678;2024-03-06T01:36:58;98807.19;;;6.21;100.00
29903;BME280;30288;50.514;9.678;2024-03-06T01:39:03;98809.75;;;6.16;100.00
29903;BME280;30288;50.514;9.678;2024-03-06T01:41:09;98807.28;;;6.11;100.00
29903;BME280;30288;50.514;9.678;2024-03-06T01:43:21;98816.50;;;6.08;100.00
29903;BME280;30288;50.514;9.678;2024-03-06T01:45:27;98809.84;;;6.05;100.00
29903;BME280;30288;50.514;9.678;2024-03-06T01:47:33;98812.28;;;6.08;100.00
29903;BME280;30288;50.514;9.678;2024-03-06T01:49:40;98813.97;;;6.09;100.00
29903;BME280;30288;50.514;9.678;2024-03-06T01:51:53;98819.03;;;6.03;100.00
29903;BME280;30288;50.514;9.678;2024-03-06T01:54:01;98819.81;;;6.05;100.00
29903;BME280;30288;50.514;9.678;2024-03-06T01:56:09;98822.38;;;6.02;100.00
29903;BME280;30288;50.514;9.678;2024-03-06T01:58:20;98823.16;;;6.04;100.00
29903;BME280;30288;50.514;9.678;2024-03-06T02:00:28;98813.16;;;6.06;100.00
29903;BME280;30288;50.514;9.678;2024-03-06T02:02:33;98823.16;;;6.06;100.00
29903;BME280;30288;50.514;9.678;2024-03-06T02:04:40;98825.66;;;6.07;100.00
29903;BME280;30288;50.514;9.678;2024-03-06T02:06:49;98825.69;;;6.01;100.00
29903;BME280;30288;50.514;9.678;2024-03-06T02:08:54;98829.91;;;5.98;100.00
29903;BME280;30288;50.514;9.678;2024-03-06T02:11:00;98826.53;;;6.02;100.00
29903;BME280;30288;50.514;9.678;2024-03-06T02:13:06;98825.69;;;6.01;100.00
29903;BME280;30288;50.514;9.678;2024-03-06T02:15:12;98826.53;;;6.00;100.00
29903;BME280;30288;50.514;9.678;2024-03-06T02:17:18;98824.88;;;6.01;100.00
29903;BME280;30288;50.514;9.678;2024-03-06T02:19:24;98825.69;;;6.00;100.00
29903;BME280;30288;50.514;9.678;2024-03-06T02:21:32;98835.69;;;6.01;100.00
29903;BME280;30288;50.514;9.678;2024-03-06T02:23:37;98834.84;;;6.04;100.00
29903;BME280;30288;50.514;9.678;2024-03-06T02:25:43;98839.88;;;6.02;100.00
29903;BME280;30288;50.514;9.678;2024-03-06T02:27:49;98830.75;;;5.98;100.00
29903;BME280;30288;50.514;9.678;2024-03-06T02:29:51;98836.53;;;5.99;100.00
29903;BME280;30288;50.514;9.678;2024-03-06T02:31:56;98835.78;;;5.94;100.00
29903;BME280;30288;50.514;9.678;2024-03-06T02:34:04;98834.06;;;5.94;100.00
29903;BME280;30288;50.514;9.678;2024-03-06T02:36:11;98837.38;;;5.99;100.00
29903;BME280;30288;50.514;9.678;2024-03-06T02:38:18;98834.03;;;6.03;100.00
29903;BME280;30288;50.514;9.678;2024-03-06T02:40:23;98834.03;;;6.03;100.00
29903;BME280;30288;50.514;9.678;2024-03-06T02:42:29;98832.34;;;6.05;100.00
29903;BME280;30288;50.514;9.678;2024-03-06T02:44:34;98831.47;;;6.09;100.00
29903;BME280;30288;50.514;9.678;2024-03-06T02:46:40;98833.13;;;6.12;100.00
29903;BME280;30288;50.514;9.678;2024-03-06T02:48:46;98828.09;;;6.15;100.00
29903;BME280;30288;50.514;9.678;2024-03-06T02:50:51;98831.41;;;6.17;100.00
29903;BME280;30288;50.514;9.678;2024-03-06T02:52:58;98828.91;;;6.15;100.00
29903;BME280;30288;50.514;9.678;2024-03-06T02:55:08;98826.38;;;6.19;100.00
29903;BME280;30288;50.514;9.678;2024-03-06T02:57:15;98830.53;;;6.21;100.00
29903;BME280;30288;50.514;9.678;2024-03-06T02:59:17;98836.34;;;6.25;100.00
29903;BME280;30288;50.514;9.678;2024-03-06T03:01:23;98826.31;;;6.26;100.00
29903;BME280;30288;50.514;9.678;2024-03-06T03:03:29;98832.16;;;6.24;100.00
29903;BME280;30288;50.514;9.678;2024-03-06T03:05:35;98830.50;;;6.23;100.00
29903;BME280;30288;50.514;9.678;2024-03-06T03:07:44;98825.50;;;6.26;100.00
29903;BME280;30288;50.514;9.678;2024-03-06T03:09:49;98828.78;;;6.31;100.00
29903;BME280;30288;50.514;9.678;2024-03-06T03:11:57;98822.94;;;6.32;100.00
29903;BME280;30288;50.514;9.678;2024-03-06T03:14:02;98827.94;;;6.32;100.00
29903;BME280;30288;50.514;9.678;2024-03-06T03:16:15;98825.41;;;6.35;100.00
29903;BME280;30288;50.514;9.678;2024-03-06T03:18:20;98829.56;;;6.34;100.00
29903;BME280;30288;50.514;9.678;2024-03-06T03:20:25;98825.44;;;6.32;100.00
29903;BME280;30288;50.514;9.678;2024-03-06T03:22:30;98829.63;;;6.31;100.00
29903;BME280;30288;50.514;9.678;2024-03-06T03:24:35;98830.44;;;6.29;100.00
29903;BME280;30288;50.514;9.678;2024-03-06T03:26:39;98835.44;;;6.32;100.00
29903;BME280;30288;50.514;9.678;2024-03-06T03:28:48;98835.41;;;6.35;100.00
29903;BME280;30288;50.514;9.678;2024-03-06T03:30:54;98837.88;;;6.38;100.00
29903;BME280;30288;50.514;9.678;2024-03-06T03:32:59;98845.38;;;6.38;100.00
29903;BME280;30288;50.514;9.678;2024-03-06T03:35:06;98842.88;;;6.41;100.00
29903;BME280;30288;50.514;9.678;2024-03-06T03:37:13;98835.38;;;6.38;100.00
29903;BME280;30288;50.514;9.678;2024-03-06T03:39:19;98839.53;;;6.40;100.00
29903;BME280;30288;50.514;9.678;2024-03-06T03:41:27;98851.91;;;6.54;100.00
29903;BME280;30288;50.514;9.678;2024-03-06T03:43:32;98849.41;;;6.52;100.00
29903;BME280;30288;50.514;9.678;2024-03-06T03:45:41;98845.22;;;6.53;100.00
29903;BME280;30288;50.514;9.678;2024-03-06T03:47:49;98845.28;;;6.50;100.00
29903;BME280;30288;50.514;9.678;2024-03-06T03:49:54;98851.94;;;6.51;100.00
29903;BME280;30288;50.514;9.678;2024-03-06T03:52:12;98849.44;;;6.48;100.00
29903;BME280;30288;50.514;9.678;2024-03-06T03:54:18;98846.94;;;6.48;100.00
29903;BME280;30288;50.514;9.678;2024-03-06T03:56:24;98845.28;;;6.50;100.00
29903;BME280;30288;50.514;9.678;2024-03-06T03:58:26;98845.28;;;6.50;100.00
29903;BME280;30288;50.514;9.678;2024-03-06T04:00:32;98844.44;;;6.48;100.00
29903;BME280;30288;50.514;9.678;2024-03-06T04:02:40;98846.94;;;6.48;100.00
29903;BME280;30288;50.514;9.678;2024-03-06T04:04:45;98846.94;;;6.48;100.00
29903;BME280;30288;50.514;9.678;2024-03-06T04:06:51;98851.94;;;6.48;100.00
29903;BME280;30288;50.514;9.678;2024-03-06T04:08:56;98851.13;;;6.47;100.00
29903;BME280;30288;50.514;9.678;2024-03-06T04:11:01;98855.28;;;6.50;100.00
29903;BME280;30288;50.514;9.678;2024-03-06T04:13:06;98848.56;;;6.52;100.00
29903;BME280;30288;50.514;9.678;2024-03-06T04:15:11;98851.91;;;6.54;100.00
29903;BME280;30288;50.514;9.678;2024-03-06T04:17:16;98851.91;;;6.55;100.00
29903;BME280;30288;50.514;9.678;2024-03-06T04:19:22;98858.53;;;6.58;100.00
29903;BME280;30288;50.514;9.678;2024-03-06T04:21:27;98856.88;;;6.57;100.00
29903;BME280;30288;50.514;9.678;2024-03-06T04:23:33;98860.19;;;6.56;100.00
29903;BME280;30288;50.514;9.678;2024-03-06T04:25:38;98863.53;;;6.58;100.00
29903;BME280;30288;50.514;9.678;2024-03-06T04:27:44;98866.84;;;6.60;100.00
29903;BME280;30288;50.514;9.678;2024-03-06T04:29:50;98871.88;;;6.60;100.00
29903;BME280;30288;50.514;9.678;2024-03-06T04:31:56;98879.34;;;6.62;100.00
29903;BME280;30288;50.514;9.678;2024-03-06T04:34:02;98882.66;;;6.60;100.00
29903;BME280;30288;50.514;9.678;2024-03-06T04:36:11;98884.34;;;6.65;100.00
29903;BME280;30288;50.514;9.678;2024-03-06T04:38:16;98891.81;;;6.66;100.00
29903;BME280;30288;50.514;9.678;2024-03-06T04:40:25;98891.84;;;6.63;100.00
29903;BME280;30288;50.514;9.678;2024-03-06T04:42:31;98895.16;;;6.65;100.00
29903;BME280;30288;50.514;9.678;2024-03-06T04:44:38;98893.50;;;6.64;100.00
29903;BME280;30288;50.514;9.678;2024-03-06T04:46:45;98893.50;;;6.64;100.00
29903;BME280;30288;50.514;9.678;2024-03-06T04:48:50;98904.34;;;6.65;100.00
29903;BME280;30288;50.514;9.678;2024-03-06T04:50:56;98896.81;;;6.66;100.00
29903;BME280;30288;50.514;9.678;2024-03-06T04:53:04;98900.97;;;6.66;100.00
29903;BME280;30288;50.514;9.678;2024-03-06T04:55:10;98897.69;;;6.62;100.00
29903;BME280;30288;50.514;9.678;2024-03-06T04:57:17;98901.00;;;6.64;100.00
29903;BME280;30288;50.514;9.678;2024-03-06T04:59:23;98909.34;;;6.63;100.00
29903;BME280;30288;50.514;9.678;2024-03-06T05:01:28;98910.19;;;6.65;100.00
29903;BME280;30288;50.514;9.678;2024-03-06T05:03:34;98909.31;;;6.66;100.00
29903;BME280;30288;50.514;9.678;2024-03-06T05:05:56;98913.53;;;6.64;100.00
29903;BME280;30288;50.514;9.678;2024-03-06T05:08:18;98915.19;;;6.64;100.00
29903;BME280;30288;50.514;9.678;2024-03-06T05:10:37;98920.19;;;6.62;100.00
29903;BME280;30288;50.514;9.678;2024-03-06T05:12:57;98921.88;;;6.63;100.00
29903;BME280;30288;50.514;9.678;2024-03-06T05:15:16;98919.38;;;6.63;100.00
29903;BME280;30288;50.514;9.678;2024-03-06T05:17:36;98919.31;;;6.68;100.00
29903;BME280;30288;50.514;9.678;2024-03-06T05:19:55;98920.16;;;6.68;100.00
29903;BME280;30288;50.514;9.678;2024-03-06T05:22:15;98922.66;;;6.67;100.00
29903;BME280;30288;50.514;9.678;2024-03-06T05:24:38;98921.00;;;6.67;100.00
29903;BME280;30288;50.514;9.678;2024-03-06T05:26:57;98921.81;;;6.66;100.00
29903;BME280;30288;50.514;9.678;2024-03-06T05:29:17;98926.03;;;6.63;100.00
29903;BME280;30288;50.514;9.678;2024-03-06T05:31:36;98928.53;;;6.64;100.00
29903;BME280;30288;50.514;9.678;2024-03-06T05:33:55;98925.13;;;6.71;100.00
29903;BME280;30288;50.514;9.678;2024-03-06T05:36:17;98930.97;;;6.72;100.00
29903;BME280;30288;50.514;9.678;2024-03-06T05:38:37;98931.66;;;6.84;100.00
29903;BME280;30288;50.514;9.678;2024-03-06T05:40:56;98945.06;;;6.80;100.00
29903;BME280;30288;50.514;9.678;2024-03-06T05:43:16;98943.34;;;6.85;100.00
29903;BME280;30288;50.514;9.678;2024-03-06T05:45:36;98946.69;;;6.84;100.00
29903;BME280;30288;50.514;9.678;2024-03-06T05:47:55;98949.19;;;6.84;100.00
29903;BME280;30288;50.514;9.678;2024-03-06T05:50:14;98953.44;;;6.79;100.00
29903;BME280;30288;50.514;9.678;2024-03-06T05:52:35;98961.75;;;6.81;100.00
29903;BME280;30288;50.514;9.678;2024-03-06T05:54:55;98958.41;;;6.82;100.00
29903;BME280;30288;50.514;9.678;2024-03-06T05:57:17;98962.56;;;6.82;100.00
29903;BME280;30288;50.514;9.678;2024-03-06T05:59:36;98966.75;;;6.81;100.00
29903;BME280;30288;50.514;9.678;2024-03-06T06:01:42;98970.09;;;6.80;100.00
29903;BME280;30288;50.514;9.678;2024-03-06T06:03:47;98975.97;;;6.79;100.00
29903;BME280;30288;50.514;9.678;2024-03-06T06:05:53;98978.47;;;6.79;100.00
29903;BME280;30288;50.514;9.678;2024-03-06T06:07:58;98983.44;;;6.82;100.00
29903;BME280;30288;50.514;9.678;2024-03-06T06:10:05;98988.34;;;6.91;100.00
29903;BME280;30288;50.514;9.678;2024-03-06T06:12:12;98995.06;;;6.86;100.00
29903;BME280;30288;50.514;9.678;2024-03-06T06:14:20;98994.25;;;6.84;100.00
29903;BME280;30288;50.514;9.678;2024-03-06T06:16:25;98991.81;;;6.78;100.00
29903;BME280;30288;50.514;9.678;2024-03-06T06:18:32;98997.66;;;6.79;100.00
29903;BME280;30288;50.514;9.678;2024-03-06T06:20:41;98993.47;;;6.79;100.00
29903;BME280;30288;50.514;9.678;2024-03-06T06:22:47;98995.97;;;6.79;100.00
29903;BME280;30288;50.514;9.678;2024-03-06T06:24:52;99001.75;;;6.84;100.00
29903;BME280;30288;50.514;9.678;2024-03-06T06:26:58;98999.25;;;6.84;100.00
29903;BME280;30288;50.514;9.678;2024-03-06T06:29:04;99005.88;;;6.91;100.00
29903;BME280;30288;50.514;9.678;2024-03-06T06:31:13;99003.41;;;6.88;100.00
29903;BME280;30288;50.514;9.678;2024-03-06T06:33:19;99010.06;;;6.89;100.00
29903;BME280;30288;50.514;9.678;2024-03-06T06:35:22;99015.94;;;6.88;100.00
29903;BME280;30288;50.514;9.678;2024-03-06T06:37:29;99021.03;;;6.78;100.00
29903;BME280;30288;50.514;9.678;2024-03-06T06:39:34;99018.63;;;6.64;100.00
29903;BME280;30288;50.514;9.678;2024-03-06T06:41:40;99023.59;;;6.67;100.00
29903;BME280;30288;50.514;9.678;2024-03-06T06:43:45;99030.31;;;6.65;100.00
29903;BME280;30288;50.514;9.678;2024-03-06T06:45:48;99036.97;;;6.63;100.00
29903;BME280;30288;50.514;9.678;2024-03-06T06:47:58;99040.28;;;6.68;100.00
29903;BME280;30288;50.514;9.678;2024-03-06T06:50:05;99032.78;;;6.67;100.00
29903;BME280;30288;50.514;9.678;2024-03-06T06:52:12;99040.34;;;6.59;100.00
29903;BME280;30288;50.514;9.678;2024-03-06T06:54:14;99042.03;;;6.57;100.00
29903;BME280;30288;50.514;9.678;2024-03-06T06:56:20;99043.72;;;6.52;100.00
29903;BME280;30288;50.514;9.678;2024-03-06T06:58:26;99050.34;;;6.56;100.00
29903;BME280;30288;50.514;9.678;2024-03-06T07:00:32;99049.53;;;6.58;100.00
29903;BME280;30288;50.514;9.678;2024-03-06T07:02:39;99056.97;;;6.66;100.00
29903;BME280;30288;50.514;9.678;2024-03-06T07:04:47;99058.63;;;6.67;100.00
29903;BME280;30288;50.514;9.678;2024-03-06T07:06:52;99065.34;;;6.65;100.00
29903;BME280;30288;50.514;9.678;2024-03-06T07:08:58;99058.69;;;6.58;100.00
29903;BME280;30288;50.514;9.678;2024-03-06T07:11:03;99063.69;;;6.58;100.00
29903;BME280;30288;50.514;9.678;2024-03-06T07:13:09;99064.50;;;6.63;100.00
29903;BME280;30288;50.514;9.678;2024-03-06T07:15:15;99066.19;;;6.64;100.00
29903;BME280;30288;50.514;9.678;2024-03-06T07:17:20;99066.22;;;6.56;100.00
29903;BME280;30288;50.514;9.678;2024-03-06T07:19:26;99068.69;;;6.61;100.00
29903;BME280;30288;50.514;9.678;2024-03-06T07:21:34;99067.03;;;6.60;100.00
29903;BME280;30288;50.514;9.678;2024-03-06T07:23:40;99071.16;;;6.67;100.00
29903;BME280;30288;50.514;9.678;2024-03-06T07:25:46;99070.25;;;6.77;100.00
29903;BME280;30288;50.514;9.678;2024-03-06T07:27:51;99076.13;;;6.70;100.00
29903;BME280;30288;50.514;9.678;2024-03-06T07:29:56;99081.16;;;6.69;100.00
29903;BME280;30288;50.514;9.678;2024-03-06T07:32:01;99072.84;;;6.64;100.00
29903;BME280;30288;50.514;9.678;2024-03-06T07:34:07;99075.28;;;6.71;100.00
29903;BME280;30288;50.514;9.678;2024-03-06T07:36:10;99079.41;;;6.77;100.00
29903;BME280;30288;50.514;9.678;2024-03-06T07:38:18;99076.03;;;6.84;100.00
29903;BME280;30288;50.514;9.678;2024-03-06T07:40:23;99085.00;;;7.11;100.00
29903;BME280;30288;50.514;9.678;2024-03-06T07:42:28;99084.91;;;7.21;100.00
29903;BME280;30288;50.514;9.678;2024-03-06T07:44:34;99092.47;;;7.17;100.00
29903;BME280;30288;50.514;9.678;2024-03-06T07:46:40;99093.38;;;7.07;100.00
29903;BME280;30288;50.514;9.678;2024-03-06T07:48:48;99094.97;;;7.14;100.00
29903;BME280;30288;50.514;9.678;2024-03-06T07:50:53;99100.03;;;7.11;100.00
29903;BME280;30288;50.514;9.678;2024-03-06T07:52:59;99100.88;;;7.10;100.00
29903;BME280;30288;50.514;9.678;2024-03-06T07:55:08;99098.34;;;7.13;100.00
29903;BME280;30288;50.514;9.678;2024-03-06T07:57:13;99095.84;;;7.11;100.00
29903;BME280;30288;50.514;9.678;2024-03-06T07:59:18;99096.66;;;7.15;100.00
29903;BME280;30288;50.514;9.678;2024-03-06T08:01:27;99100.00;;;7.14;100.00
29903;BME280;30288;50.514;9.678;2024-03-06T08:03:34;99101.63;;;7.18;100.00
29903;BME280;30288;50.514;9.678;2024-03-06T08:05:39;99109.97;;;7.20;100.00
29903;BME280;30288;50.514;9.678;2024-03-06T08:07:46;99099.78;;;7.39;100.00
29903;BME280;30288;50.514;9.678;2024-03-06T08:09:51;99100.56;;;7.41;100.00
29903;BME280;30288;50.514;9.678;2024-03-06T08:11:59;99101.25;;;7.57;100.00
29903;BME280;30288;50.514;9.678;2024-03-06T08:14:06;99101.25;;;7.57;100.00
29903;BME280;30288;50.514;9.678;2024-03-06T08:16:11;99107.84;;;7.67;100.00
29903;BME280;30288;50.514;9.678;2024-03-06T08:18:17;99105.25;;;7.76;100.00
29903;BME280;30288;50.514;9.678;2024-03-06T08:20:22;99108.38;;;7.93;100.00
29903;BME280;30288;50.514;9.678;2024-03-06T08:22:27;99105.88;;;7.93;100.00
29903;BME280;30288;50.514;9.678;2024-03-06T08:24:33;99111.66;;;8.00;100.00
29903;BME280;30288;50.514;9.678;2024-03-06T08:26:38;99104.91;;;8.07;100.00
29903;BME280;30288;50.514;9.678;2024-03-06T08:28:45;99098.75;;;8.32;100.00
29903;BME280;30288;50.514;9.678;2024-03-06T08:30:52;99100.41;;;8.36;100.00
29903;BME280;30288;50.514;9.678;2024-03-06T08:32:59;99108.66;;;8.44;100.00
29903;BME280;30288;50.514;9.678;2024-03-06T08:35:09;99111.88;;;8.52;100.00
29903;BME280;30288;50.514;9.678;2024-03-06T08:37:21;99111.88;;;8.52;100.00
29903;BME280;30288;50.514;9.678;2024-03-06T08:39:26;99121.00;;;8.56;100.00
29903;BME280;30288;50.514;9.678;2024-03-06T08:41:31;99116.03;;;8.55;100.00
29903;BME280;30288;50.514;9.678;2024-03-06T08:43:35;99124.47;;;8.49;100.00
29903;BME280;30288;50.514;9.678;2024-03-06T08:45:43;99130.28;;;8.51;100.00
29903;BME280;30288;50.514;9.678;2024-03-06T08:47:48;99131.13;;;8.52;100.00
29903;BME280;30288;50.514;9.678;2024-03-06T08:49:56;99135.09;;;8.69;100.00
29903;BME280;30288;50.514;9.678;2024-03-06T08:51:59;99140.19;;;8.63;100.00
29903;BME280;30288;50.514;9.678;2024-03-06T08:54:04;99139.09;;;8.79;100.00
29903;BME280;30288;50.514;9.678;2024-03-06T08:56:10;99143.59;;;8.56;100.00
29903;BME280;30288;50.514;9.678;2024-03-06T08:58:16;99138.34;;;8.74;100.00
29903;BME280;30288;50.514;9.678;2024-03-06T09:00:23;99148.72;;;8.50;100.00
29903;BME280;30288;50.514;9.678;2024-03-06T09:02:31;99144.56;;;8.48;100.00
29903;BME280;30288;50.514;9.678;2024-03-06T09:04:37;99144.09;;;8.15;100.00
29903;BME280;30288;50.514;9.678;2024-03-06T09:06:42;99145.19;;;7.93;100.00
29903;BME280;30288;50.514;9.678;2024-03-06T09:08:48;99147.56;;;8.04;100.00
29903;BME280;30288;50.514;9.678;2024-03-06T09:10:53;99149.41;;;7.89;100.00
29903;BME280;30288;50.514;9.678;2024-03-06T09:13:02;99157.16;;;7.68;100.00
29903;BME280;30288;50.514;9.678;2024-03-06T09:15:07;99149.69;;;7.62;100.00
29903;BME280;30288;50.514;9.678;2024-03-06T09:17:14;99158.63;;;7.84;100.00
29903;BME280;30288;50.514;9.678;2024-03-06T09:19:22;99161.97;;;7.88;100.00
29903;BME280;30288;50.514;9.678;2024-03-06T09:21:28;99163.44;;;8.06;100.00
29903;BME280;30288;50.514;9.678;2024-03-06T09:23:34;99165.13;;;8.04;100.00
29903;BME280;30288;50.514;9.678;2024-03-06T09:25:39;99171.84;;;8.00;100.00
29903;BME280;30288;50.514;9.678;2024-03-06T09:27:45;99176.22;;;7.81;100.00
29903;BME280;30288;50.514;9.678;2024-03-06T09:29:49;99169.56;;;7.80;100.00
29903;BME280;30288;50.514;9.678;2024-03-06T09:31:54;99171.41;;;7.63;100.00
29903;BME280;30288;50.514;9.678;2024-03-06T09:34:00;99167.22;;;7.62;100.00
29903;BME280;30288;50.514;9.678;2024-03-06T09:36:10;99178.75;;;7.83;100.00
29903;BME280;30288;50.514;9.678;2024-03-06T09:38:17;99174.38;;;8.02;100.00
29903;BME280;30288;50.514;9.678;2024-03-06T09:40:26;99177.75;;;7.95;100.00
29903;BME280;30288;50.514;9.678;2024-03-06T09:42:33;99183.63;;;7.95;100.00
29903;BME280;30288;50.514;9.678;2024-03-06T09:44:36;99182.63;;;8.10;100.00
29903;BME280;30288;50.514;9.678;2024-03-06T09:46:43;99181.69;;;8.21;100.00
29903;BME280;30288;50.514;9.678;2024-03-06T09:48:53;99176.72;;;8.15;100.00
29903;BME280;30288;50.514;9.678;2024-03-06T09:51:01;99174.22;;;8.14;100.00
29903;BME280;30288;50.514;9.678;2024-03-06T09:53:13;99178.28;;;8.25;100.00
29903;BME280;30288;50.514;9.678;2024-03-06T09:55:21;99176.03;;;8.03;100.00
29903;BME280;30288;50.514;9.678;2024-03-06T09:57:24;99179.16;;;8.20;100.00
29903;BME280;30288;50.514;9.678;2024-03-06T09:59:30;99185.81;;;8.24;100.00
29903;BME280;30288;50.514;9.678;2024-03-06T10:01:41;99190.66;;;8.42;100.00
29903;BME280;30288;50.514;9.678;2024-03-06T10:03:51;99187.91;;;8.62;100.00
29903;BME280;30288;50.514;9.678;2024-03-06T10:05:57;99188.53;;;8.77;100.00
29903;BME280;30288;50.514;9.678;2024-03-06T10:08:10;99194.38;;;8.78;100.00
29903;BME280;30288;50.514;9.678;2024-03-06T10:10:19;99196.91;;;8.76;100.00
29903;BME280;30288;50.514;9.678;2024-03-06T10:12:22;99191.25;;;8.62;100.00
29903;BME280;30288;50.514;9.678;2024-03-06T10:14:28;99190.94;;;8.85;100.00
29903;BME280;30288;50.514;9.678;2024-03-06T10:16:35;99195.72;;;9.02;100.00
29903;BME280;30288;50.514;9.678;2024-03-06T10:18:41;99184.03;;;9.53;100.00
29903;BME280;30288;50.514;9.678;2024-03-06T10:20:46;99192.66;;;9.40;100.00
29903;BME280;30288;50.514;9.678;2024-03-06T10:22:53;99198.13;;;9.11;100.00
29903;BME280;30288;50.514;9.678;2024-03-06T10:25:06;99203.53;;;8.84;100.00
29903;BME280;30288;50.514;9.678;2024-03-06T10:27:15;99201.88;;;8.83;100.00
29903;BME280;30288;50.514;9.678;2024-03-06T10:29:22;99199.59;;;8.63;100.00
29903;BME280;30288;50.514;9.678;2024-03-06T10:31:29;99202.69;;;8.83;100.00
29903;BME280;30288;50.514;9.678;2024-03-06T10:33:34;99206.19;;;8.71;100.00
29903;BME280;30288;50.514;9.678;2024-03-06T10:35:42;99205.22;;;8.82;100.00
29903;BME280;30288;50.514;9.678;2024-03-06T10:37:50;99209.84;;;9.09;100.00
29903;BME280;30288;50.514;9.678;2024-03-06T10:39:59;99201.56;;;9.04;100.00
29903;BME280;30288;50.514;9.678;2024-03-06T10:42:13;99206.19;;;9.31;100.00
29903;BME280;30288;50.514;9.678;2024-03-06T10:44:22;99197.91;;;9.23;100.00
29903;BME280;30288;50.514;9.678;2024-03-06T10:46:27;99201.53;;;9.07;100.00
29903;BME280;30288;50.514;9.678;2024-03-06T10:48:34;99203.00;;;9.20;100.00
29903;BME280;30288;50.514;9.678;2024-03-06T10:50:42;99196.50;;;9.07;100.00
29903;BME280;30288;50.514;9.678;2024-03-06T10:52:47;99199.16;;;9.51;100.00
29903;BME280;30288;50.514;9.678;2024-03-06T10:54:54;99198.53;;;9.88;100.00
29903;BME280;30288;50.514;9.678;2024-03-06T10:57:02;99199.59;;;10.22;100.00
29903;BME280;30288;50.514;9.678;2024-03-06T10:59:11;99205.91;;;10.43;100.00
29903;BME280;30288;50.514;9.678;2024-03-06T11:01:18;99202.25;;;10.58;100.00
29903;BME280;30288;50.514;9.678;2024-03-06T11:03:25;99206.28;;;10.23;100.00
29903;BME280;30288;50.514;9.678;2024-03-06T11:05:35;99201.66;;;10.00;100.00
29903;BME280;30288;50.514;9.678;2024-03-06T11:07:42;99206.09;;;9.88;100.00
29903;BME280;30288;50.514;9.678;2024-03-06T11:09:48;99194.25;;;9.42;100.00
29903;BME280;30288;50.514;9.678;2024-03-06T11:11:54;99206.63;;;9.56;100.00
29903;BME280;30288;50.514;9.678;2024-03-06T11:14:04;99209.63;;;9.78;100.00